Time;durP1;ratioP1;P1;durP2;ratioP2;P2;SDS_P1;SDS_P2;PMS_P1;PMS_P2;Temp;Humidity;BMP_temperature;BMP_pressure;BME280_temperature;BME280_humidity;BME280_pressure;Samples;Min_cycle;Max_cycle;Signal;HPM_P1;HPM_P2
2023/08/06 00:01:04;;;;;;;3.77;3.47;;;14.40;99.90;;;;;;8396723;28;20189;-68
2023/08/06 00:05:05;;;;;;;5.17;3.50;;;14.40;99.90;;;;;;8399026;28;20188;-70
2023/08/06 00:09:06;;;;;;;3.90;2.90;;;14.40;99.90;;;;;;8394908;28;20215;-63
2023/08/06 00:13:06;;;;;;;3.60;3.20;;;14.40;99.90;;;;;;8401504;28;20181;-66
2023/08/06 00:17:07;;;;;;;4.23;2.97;;;14.40;99.90;;;;;;8398738;28;20228;-69
2023/08/06 00:21:08;;;;;;;3.50;3.10;;;14.40;99.90;;;;;;8401930;28;20207;-65
2023/08/06 00:25:09;;;;;;;3.10;2.87;;;14.40;99.90;;;;;;8400471;28;20197;-68
2023/08/06 00:29:09;;;;;;;3.27;2.97;;;14.30;99.90;;;;;;8397876;28;20259;-68
2023/08/06 00:33:10;;;;;;;3.67;3.20;;;14.30;99.90;;;;;;8396527;28;20207;-70
2023/08/06 00:37:11;;;;;;;3.03;2.63;;;14.30;99.90;;;;;;8398122;28;20209;-68
2023/08/06 00:41:15;;;;;;;2.93;2.73;;;14.30;99.90;;;;;;8397374;28;20285;-67
2023/08/06 00:45:16;;;;;;;3.40;2.63;;;14.30;99.90;;;;;;8392075;28;20233;-68
2023/08/06 00:49:16;;;;;;;2.87;2.67;;;14.30;99.90;;;;;;8398592;28;20180;-67
2023/08/06 00:53:17;;;;;;;3.33;3.03;;;14.30;99.90;;;;;;8394514;28;20203;-67
2023/08/06 00:57:20;;;;;;;3.30;2.73;;;14.20;99.90;;;;;;8395168;28;20220;-64
2023/08/06 01:01:20;;;;;;;3.80;2.53;;;14.20;99.90;;;;;;8395401;28;20199;-64
2023/08/06 01:05:22;;;;;;;4.70;2.50;;;14.20;99.90;;;;;;8397783;28;20212;-66
2023/08/06 01:09:32;;;;;;;8.00;2.80;;;14.20;99.90;;;;;;8400960;28;20201;-67
2023/08/06 01:13:51;;;;;;;3.00;2.80;;;14.20;99.90;;;;;;8399855;28;20266;-68
2023/08/06 01:17:52;;;;;;;2.93;2.67;;;14.10;99.90;;;;;;8394117;28;20315;-66
2023/08/06 01:21:53;;;;;;;5.30;2.57;;;14.10;99.90;;;;;;8394778;28;20245;-70
2023/08/06 01:26:22;;;;;;;3.17;2.40;;;14.10;99.90;;;;;;8392503;28;20197;-66
2023/08/06 01:30:30;;;;;;;3.83;2.83;;;14.10;99.90;;;;;;8390215;28;20197;-63
2023/08/06 01:34:33;;;;;;;2.97;2.73;;;14.00;99.90;;;;;;8391470;28;20203;-63
2023/08/06 01:38:34;;;;;;;2.90;2.30;;;14.00;99.90;;;;;;8395392;28;20220;-64
2023/08/06 01:42:35;;;;;;;3.00;2.27;;;14.00;99.90;;;;;;8395695;28;20224;-64
2023/08/06 01:46:36;;;;;;;2.87;2.47;;;14.00;99.90;;;;;;8393702;28;20200;-64
2023/08/06 01:50:36;;;;;;;2.57;2.37;;;14.00;99.90;;;;;;8395686;28;20197;-64
2023/08/06 01:54:37;;;;;;;2.60;2.40;;;13.90;99.90;;;;;;8389971;28;20411;-64
2023/08/06 01:58:38;;;;;;;2.57;2.37;;;13.90;99.90;;;;;;8395394;28;20243;-63
2023/08/06 02:02:40;;;;;;;2.40;2.10;;;13.90;99.90;;;;;;8388071;28;20210;-66
2023/08/06 02:06:41;;;;;;;2.47;2.27;;;13.90;99.90;;;;;;8390186;28;20603;-64
2023/08/06 02:10:42;;;;;;;3.33;2.20;;;13.90;99.90;;;;;;8392036;28;20347;-63
2023/08/06 02:14:43;;;;;;;3.97;2.53;;;13.90;99.90;;;;;;8396014;28;20181;-65
2023/08/06 02:18:43;;;;;;;2.70;2.27;;;13.80;99.90;;;;;;8392585;28;20216;-63
2023/08/06 02:22:44;;;;;;;2.60;2.30;;;13.80;99.90;;;;;;8395509;28;20184;-64
2023/08/06 02:26:46;;;;;;;4.43;2.43;;;13.80;99.90;;;;;;8393818;28;20195;-62
2023/08/06 02:30:53;;;;;;;2.70;2.30;;;13.80;99.90;;;;;;8392874;28;20180;-63
2023/08/06 02:34:54;;;;;;;5.03;2.30;;;13.80;99.90;;;;;;8394508;28;20449;-64
2023/08/06 02:38:55;;;;;;;2.53;2.33;;;13.80;99.90;;;;;;8395244;28;20184;-63
2023/08/06 02:42:56;;;;;;;2.37;2.17;;;13.80;99.90;;;;;;8395199;28;20302;-64
2023/08/06 02:46:57;;;;;;;2.50;2.30;;;13.80;99.90;;;;;;8393172;28;20204;-64
2023/08/06 02:50:59;;;;;;;2.10;1.90;;;13.80;99.90;;;;;;8396579;28;20192;-65
2023/08/06 02:55:00;;;;;;;2.40;2.20;;;13.80;99.90;;;;;;8391502;28;20193;-64
2023/08/06 02:59:00;;;;;;;2.93;2.30;;;13.80;99.90;;;;;;8395027;28;20217;-62
2023/08/06 03:03:01;;;;;;;2.77;2.33;;;13.80;99.90;;;;;;8394830;28;20195;-63
2023/08/06 03:07:02;;;;;;;2.10;1.90;;;13.80;99.90;;;;;;8397344;28;20194;-62
2023/08/06 03:11:02;;;;;;;2.10;1.70;;;13.80;99.90;;;;;;8395459;28;20212;-63
2023/08/06 03:15:04;;;;;;;3.13;2.13;;;13.70;99.90;;;;;;8389037;28;20188;-63
2023/08/06 03:19:04;;;;;;;2.20;2.00;;;13.70;99.90;;;;;;8391826;28;20185;-64
2023/08/06 03:23:05;;;;;;;2.20;2.00;;;13.70;99.90;;;;;;8398598;28;20211;-61
2023/08/06 03:27:06;;;;;;;2.20;2.00;;;13.70;99.90;;;;;;8401296;28;21298;-63
2023/08/06 03:31:07;;;;;;;2.20;2.00;;;13.60;99.90;;;;;;8402769;28;20286;-65
2023/08/06 03:35:08;;;;;;;2.00;1.90;;;13.70;99.90;;;;;;8397514;28;20633;-65
2023/08/06 03:39:13;;;;;;;3.97;2.03;;;13.60;99.90;;;;;;8394370;28;20206;-65
2023/08/06 03:43:14;;;;;;;2.27;2.07;;;13.60;99.90;;;;;;8401116;28;20193;-64
2023/08/06 03:47:15;;;;;;;2.20;2.00;;;13.60;99.90;;;;;;8395030;28;20181;-62
2023/08/06 03:51:16;;;;;;;2.67;1.73;;;13.60;99.90;;;;;;8394885;28;20197;-68
2023/08/06 03:55:16;;;;;;;2.40;2.20;;;13.60;99.90;;;;;;8388402;28;20215;-67
2023/08/06 03:59:17;;;;;;;2.50;2.00;;;13.50;99.90;;;;;;8398275;28;20211;-67
2023/08/06 04:03:18;;;;;;;2.33;2.10;;;13.60;99.90;;;;;;8394433;28;20189;-66
2023/08/06 04:07:19;;;;;;;2.57;2.37;;;13.60;99.90;;;;;;8394431;28;20265;-67
2023/08/06 04:11:20;;;;;;;2.77;2.00;;;13.60;99.90;;;;;;8396182;28;20219;-67
2023/08/06 04:15:23;;;;;;;2.07;1.87;;;13.60;99.90;;;;;;8397418;28;20213;-70
2023/08/06 04:19:24;;;;;;;3.30;1.90;;;13.60;99.90;;;;;;8401496;28;20189;-68
2023/08/06 04:23:25;;;;;;;2.33;1.93;;;13.60;99.90;;;;;;8394729;28;20185;-69
2023/08/06 04:27:26;;;;;;;1.80;1.70;;;13.60;99.90;;;;;;8401309;28;20565;-70
2023/08/06 04:31:26;;;;;;;2.03;1.87;;;13.60;99.90;;;;;;8393946;28;20275;-69
2023/08/06 04:35:27;;;;;;;1.93;1.80;;;13.60;99.90;;;;;;8397436;28;20220;-71
2023/08/06 04:39:28;;;;;;;2.20;2.00;;;13.60;99.90;;;;;;8397695;28;20261;-67
2023/08/06 04:43:28;;;;;;;2.40;2.20;;;13.60;99.90;;;;;;8400582;28;20189;-68
2023/08/06 04:47:29;;;;;;;2.00;1.80;;;13.60;99.90;;;;;;8398704;28;20188;-72
2023/08/06 04:51:30;;;;;;;3.83;1.77;;;13.70;99.90;;;;;;8395009;28;20193;-66
2023/08/06 04:55:31;;;;;;;2.13;1.93;;;13.60;99.90;;;;;;8396767;28;20208;-69
2023/08/06 04:59:32;;;;;;;2.40;2.20;;;13.70;99.90;;;;;;8394485;28;20242;-67
2023/08/06 05:03:32;;;;;;;1.83;1.73;;;13.60;99.90;;;;;;8395225;28;20274;-67
2023/08/06 05:07:33;;;;;;;2.10;1.90;;;13.70;99.90;;;;;;8394706;28;20196;-67
2023/08/06 05:11:34;;;;;;;2.30;2.10;;;13.70;99.90;;;;;;8400345;28;20200;-72
2023/08/06 05:15:35;;;;;;;2.93;2.40;;;13.70;99.90;;;;;;8391052;28;20201;-67
2023/08/06 05:19:35;;;;;;;2.20;1.90;;;13.70;99.90;;;;;;8393859;28;20184;-64
2023/08/06 05:23:36;;;;;;;2.10;1.97;;;13.70;99.90;;;;;;8391908;28;20188;-64
2023/08/06 05:27:37;;;;;;;2.07;1.97;;;13.70;99.90;;;;;;8396558;28;20193;-63
2023/08/06 05:31:38;;;;;;;2.80;2.50;;;13.80;99.90;;;;;;8389770;28;20192;-64
2023/08/06 05:35:40;;;;;;;2.20;2.00;;;13.80;99.90;;;;;;8394070;28;20266;-64
2023/08/06 05:39:41;;;;;;;2.30;2.10;;;13.90;99.90;;;;;;8395368;28;20181;-64
2023/08/06 05:43:42;;;;;;;2.37;2.17;;;13.90;99.90;;;;;;8394642;28;20228;-65
2023/08/06 05:47:46;;;;;;;2.30;2.10;;;13.90;99.90;;;;;;8395527;28;20184;-60
2023/08/06 05:51:46;;;;;;;3.07;2.37;;;13.90;99.90;;;;;;8396477;28;20426;-63
2023/08/06 05:55:47;;;;;;;2.50;2.30;;;13.90;99.90;;;;;;8392536;28;20209;-63
2023/08/06 05:59:48;;;;;;;2.80;2.40;;;13.90;99.90;;;;;;8393133;28;20222;-64
2023/08/06 06:03:49;;;;;;;2.60;2.40;;;13.80;99.90;;;;;;8394980;28;20216;-63
2023/08/06 06:07:50;;;;;;;2.50;2.30;;;13.80;99.90;;;;;;8384734;28;20185;-62
2023/08/06 06:11:51;;;;;;;2.80;2.60;;;13.90;99.90;;;;;;8386742;28;20586;-64
2023/08/06 06:15:56;;;;;;;3.23;2.57;;;13.80;99.90;;;;;;8387943;28;20265;-65
2023/08/06 06:19:57;;;;;;;2.63;2.43;;;13.90;99.90;;;;;;8371837;28;20200;-68
2023/08/06 06:23:57;;;;;;;3.97;3.67;;;13.80;99.90;;;;;;8377827;28;20184;-66
2023/08/06 06:27:58;;;;;;;3.80;3.17;;;13.90;99.90;;;;;;8385316;28;20345;-69
2023/08/06 06:31:59;;;;;;;3.33;2.80;;;13.90;99.90;;;;;;8391335;28;20200;-67
2023/08/06 06:36:00;;;;;;;3.17;2.87;;;13.90;99.90;;;;;;8389654;28;20208;-67
2023/08/06 06:40:01;;;;;;;4.97;2.70;;;13.90;99.90;;;;;;8390953;28;20197;-67
2023/08/06 06:44:01;;;;;;;3.07;2.87;;;13.90;99.90;;;;;;8392380;28;20201;-68
2023/08/06 06:48:02;;;;;;;2.60;2.40;;;13.90;99.90;;;;;;8391810;28;20265;-68
2023/08/06 06:52:03;;;;;;;2.93;2.73;;;14.00;99.90;;;;;;8388742;28;20258;-67
2023/08/06 06:56:05;;;;;;;2.60;2.40;;;14.00;99.90;;;;;;8396580;28;20208;-67
2023/08/06 07:00:06;;;;;;;3.20;2.90;;;14.10;99.90;;;;;;8397525;28;20218;-65
2023/08/06 07:04:07;;;;;;;2.90;2.53;;;14.10;99.90;;;;;;8397062;28;20176;-67
2023/08/06 07:08:07;;;;;;;2.67;2.47;;;14.20;99.90;;;;;;8391564;28;20732;-67
2023/08/06 07:12:08;;;;;;;2.53;2.33;;;14.10;99.90;;;;;;8390840;28;20181;-68
2023/08/06 07:16:09;;;;;;;2.43;2.17;;;14.20;99.90;;;;;;8393147;28;20201;-67
2023/08/06 07:20:10;;;;;;;2.70;2.50;;;14.10;99.90;;;;;;8395033;28;20894;-66
2023/08/06 07:24:11;;;;;;;2.40;2.20;;;14.10;99.90;;;;;;8392059;28;20176;-65
2023/08/06 07:28:14;;;;;;;3.37;2.20;;;14.20;99.90;;;;;;8399059;28;20195;-65
2023/08/06 07:32:14;;;;;;;2.30;2.10;;;14.20;99.90;;;;;;8398420;28;20671;-63
2023/08/06 07:36:15;;;;;;;1.90;1.80;;;14.20;99.90;;;;;;8393294;28;20245;-65
2023/08/06 07:40:17;;;;;;;2.80;1.73;;;14.10;99.90;;;;;;8396143;28;20177;-63
2023/08/06 07:44:18;;;;;;;1.60;1.50;;;14.10;99.90;;;;;;8398461;28;20200;-65
2023/08/06 07:48:19;;;;;;;1.70;1.60;;;14.10;99.90;;;;;;8395858;28;20188;-66
2023/08/06 07:52:20;;;;;;;2.00;1.73;;;14.10;99.90;;;;;;8397397;28;20196;-66
2023/08/06 07:56:21;;;;;;;1.60;1.50;;;14.10;99.90;;;;;;8394796;28;20318;-64
2023/08/06 08:00:22;;;;;;;2.67;2.17;;;14.20;99.90;;;;;;8398377;28;20195;-64
2023/08/06 08:04:24;;;;;;;3.70;2.30;;;14.20;99.90;;;;;;8393234;28;20212;-65
2023/08/06 08:08:25;;;;;;;2.60;2.40;;;14.20;99.90;;;;;;8391570;28;20442;-65
2023/08/06 08:12:26;;;;;;;3.63;2.60;;;14.20;99.90;;;;;;8396011;28;20185;-64
2023/08/06 08:16:27;;;;;;;3.60;3.30;;;14.20;99.90;;;;;;8399256;28;20216;-67
2023/08/06 08:20:31;;;;;;;4.10;3.70;;;14.30;99.90;;;;;;8395078;28;20189;-65
2023/08/06 08:24:32;;;;;;;3.80;3.50;;;14.30;99.90;;;;;;8396223;28;20276;-65
2023/08/06 08:28:33;;;;;;;4.73;3.27;;;14.30;99.90;;;;;;8398340;28;20621;-64
2023/08/06 08:32:34;;;;;;;3.50;3.20;;;14.30;99.90;;;;;;8392299;28;20189;-62
2023/08/06 08:36:35;;;;;;;3.63;3.20;;;14.30;99.90;;;;;;8397010;28;20209;-62
2023/08/06 08:40:47;;;;;;;3.20;2.87;;;14.30;99.90;;;;;;8395719;28;20185;-64
2023/08/06 08:44:48;;;;;;;3.60;3.30;;;14.30;99.90;;;;;;8389439;28;20223;-64
2023/08/06 08:48:48;;;;;;;3.00;2.80;;;14.30;99.90;;;;;;8385066;28;20189;-63
2023/08/06 08:52:50;;;;;;;2.80;2.60;;;14.30;99.90;;;;;;8389564;28;20212;-64
2023/08/06 08:56:51;;;;;;;3.17;2.93;;;14.20;99.90;;;;;;8389819;28;20258;-65
2023/08/06 09:00:53;;;;;;;2.90;2.70;;;14.20;99.90;;;;;;8394101;28;20192;-65
2023/08/06 09:04:57;;;;;;;3.70;3.37;;;14.20;99.90;;;;;;8392562;28;20187;-66
2023/08/06 09:09:09;;;;;;;2.83;2.63;;;14.20;99.90;;;;;;8393477;28;20212;-65
2023/08/06 09:13:12;;;;;;;2.83;2.40;;;14.30;99.90;;;;;;8393794;28;20192;-65
2023/08/06 09:17:13;;;;;;;2.53;2.33;;;14.30;99.90;;;;;;8386035;28;20248;-65
2023/08/06 09:21:16;;;;;;;2.43;2.23;;;14.40;99.90;;;;;;8392766;28;20271;-65
2023/08/06 09:25:26;;;;;;;2.40;2.20;;;14.50;99.90;;;;;;8400520;28;20207;-64
2023/08/06 09:29:32;;;;;;;2.33;2.13;;;14.60;99.90;;;;;;8391569;28;20210;-64
2023/08/06 09:33:32;;;;;;;2.33;2.13;;;14.60;99.90;;;;;;8384286;28;20176;-66
2023/08/06 09:37:36;;;;;;;2.30;1.77;;;14.60;99.90;;;;;;8386154;28;20219;-66
2023/08/06 09:41:37;;;;;;;2.43;1.70;;;14.50;99.90;;;;;;8390749;28;20177;-65
2023/08/06 09:45:38;;;;;;;1.67;1.57;;;14.60;99.90;;;;;;8384503;28;20201;-67
2023/08/06 09:49:45;;;;;;;2.00;1.57;;;14.60;99.90;;;;;;8392847;28;20278;-65
2023/08/06 09:53:48;;;;;;;2.00;1.80;;;14.60;99.90;;;;;;8385830;28;20213;-63
2023/08/06 09:57:50;;;;;;;2.13;1.70;;;14.60;99.90;;;;;;8389460;28;20223;-64
2023/08/06 10:01:53;;;;;;;2.27;1.80;;;14.60;99.90;;;;;;8387870;28;20235;-65
2023/08/06 10:05:56;;;;;;;1.83;1.73;;;14.50;99.90;;;;;;8384349;28;20193;-65
2023/08/06 10:09:58;;;;;;;2.73;2.00;;;14.50;99.90;;;;;;8390675;28;20293;-69
2023/08/06 10:14:30;;;;;;;2.30;2.10;;;14.50;99.90;;;;;;8390344;28;20198;-65
2023/08/06 10:18:31;;;;;;;2.20;2.00;;;14.50;99.90;;;;;;8394499;28;20327;-65
2023/08/06 10:22:33;;;;;;;2.50;2.17;;;14.50;99.90;;;;;;8410094;28;20313;-66
2023/08/06 10:26:34;;;;;;;2.87;1.63;;;14.60;99.90;;;;;;8394221;28;20200;-68
2023/08/06 10:30:51;;;;;;;2.30;2.07;;;14.60;99.90;;;;;;8398468;28;20192;-65
2023/08/06 10:34:58;;;;;;;2.27;2.07;;;14.60;99.90;;;;;;8411317;28;20208;-65
2023/08/06 10:38:59;;;;;;;2.40;2.00;;;14.60;99.90;;;;;;8395089;28;20218;-67
2023/08/06 10:43:03;;;;;;;2.63;2.43;;;14.50;99.90;;;;;;8394530;28;20181;-68
2023/08/06 10:47:43;;;;;;;3.13;2.93;;;14.50;99.90;;;;;;8394198;28;20291;-66
2023/08/06 10:51:45;;;;;;;4.17;3.73;;;14.50;99.90;;;;;;8375763;28;20204;-65
2023/08/06 10:55:45;;;;;;;4.27;3.87;;;14.60;99.90;;;;;;8382593;28;20204;-65
2023/08/06 10:59:46;;;;;;;4.40;4.00;;;14.60;99.90;;;;;;8394714;28;20199;-63
2023/08/06 11:03:50;;;;;;;4.83;4.43;;;14.60;99.90;;;;;;8394775;28;20185;-63
2023/08/06 11:07:51;;;;;;;5.17;4.77;;;14.70;99.90;;;;;;8399874;28;20299;-63
2023/08/06 11:11:52;;;;;;;6.10;4.97;;;14.70;99.90;;;;;;8393274;28;20212;-64
2023/08/06 11:15:53;;;;;;;5.63;5.13;;;14.80;99.90;;;;;;8396668;28;20286;-63
2023/08/06 11:19:54;;;;;;;6.37;5.77;;;14.80;99.90;;;;;;8394462;28;20342;-66
2023/08/06 11:23:56;;;;;;;6.23;5.60;;;14.80;99.90;;;;;;8396615;28;20289;-64
2023/08/06 11:27:56;;;;;;;6.13;5.57;;;14.80;99.90;;;;;;8400528;28;20183;-67
2023/08/06 11:32:04;;;;;;;6.67;6.07;;;14.80;99.90;;;;;;8397248;28;20193;-63
2023/08/06 11:36:05;;;;;;;6.67;6.07;;;14.90;99.90;;;;;;8397363;28;20296;-64
2023/08/06 11:40:10;;;;;;;6.93;6.33;;;14.90;99.90;;;;;;8399506;28;20243;-65
2023/08/06 11:44:13;;;;;;;6.90;6.30;;;14.90;99.90;;;;;;8398850;28;20246;-64
2023/08/06 11:48:14;;;;;;;6.37;5.77;;;15.00;99.90;;;;;;8392880;28;20269;-63
2023/08/06 11:52:25;;;;;;;6.43;5.83;;;14.90;99.90;;;;;;8393230;28;20192;-64
2023/08/06 11:56:27;;;;;;;6.50;5.90;;;15.00;99.90;;;;;;8393777;28;20249;-64
2023/08/06 12:00:29;;;;;;;5.87;5.33;;;15.10;99.90;;;;;;8392994;28;20454;-63
2023/08/06 12:04:30;;;;;;;6.83;6.10;;;15.10;99.90;;;;;;8400767;28;20275;-63
2023/08/06 12:08:30;;;;;;;6.03;5.43;;;15.10;99.90;;;;;;8398134;28;20284;-64
2023/08/06 12:12:31;;;;;;;6.03;5.53;;;15.20;99.90;;;;;;8398959;28;20188;-63
2023/08/06 12:16:32;;;;;;;5.93;5.33;;;15.10;99.90;;;;;;8401678;28;20204;-63
2023/08/06 12:20:33;;;;;;;5.83;5.33;;;15.20;99.90;;;;;;8402480;28;20185;-68
2023/08/06 12:24:34;;;;;;;5.60;5.10;;;15.20;99.90;;;;;;8395457;28;20227;-67
2023/08/06 12:28:35;;;;;;;5.97;5.20;;;15.20;99.90;;;;;;8395642;28;20275;-64
2023/08/06 12:32:36;;;;;;;4.90;4.50;;;15.20;99.90;;;;;;8408432;28;20188;-65
2023/08/06 12:36:37;;;;;;;5.17;4.67;;;15.30;99.90;;;;;;8390353;28;20207;-65
2023/08/06 12:40:38;;;;;;;5.27;4.77;;;15.40;99.90;;;;;;8394881;28;20173;-65
2023/08/06 12:44:38;;;;;;;4.90;4.50;;;15.40;99.90;;;;;;8394949;28;20246;-64
2023/08/06 12:48:39;;;;;;;4.67;4.27;;;15.40;99.90;;;;;;8395529;28;20212;-65
2023/08/06 12:52:40;;;;;;;4.27;3.87;;;15.40;99.90;;;;;;8394874;28;20193;-66
2023/08/06 12:56:41;;;;;;;4.07;3.77;;;15.50;99.90;;;;;;8401726;28;20208;-66
2023/08/06 13:00:42;;;;;;;3.70;3.40;;;15.60;99.90;;;;;;8397048;28;20183;-61
2023/08/06 13:04:43;;;;;;;6.50;4.00;;;15.60;99.90;;;;;;8399794;28;20180;-60
2023/08/06 13:08:43;;;;;;;3.80;3.47;;;15.50;99.90;;;;;;8400817;28;20232;-63
2023/08/06 13:12:44;;;;;;;4.10;3.80;;;15.60;99.90;;;;;;8411956;28;20560;-62
2023/08/06 13:16:45;;;;;;;3.83;3.53;;;15.60;99.90;;;;;;8392420;28;20236;-62
2023/08/06 13:20:49;;;;;;;3.40;3.13;;;15.60;99.90;;;;;;8395580;28;20473;-66
2023/08/06 13:24:50;;;;;;;3.10;2.90;;;15.70;99.90;;;;;;8393394;28;20237;-66
2023/08/06 13:28:51;;;;;;;4.40;2.73;;;15.70;99.90;;;;;;8396609;28;20180;-66
2023/08/06 13:32:51;;;;;;;2.60;2.40;;;15.70;99.90;;;;;;8387828;28;20196;-66
2023/08/06 13:36:52;;;;;;;2.53;2.33;;;15.60;99.90;;;;;;8389507;28;20204;-65
2023/08/06 13:40:53;;;;;;;3.27;2.97;;;15.60;99.90;;;;;;8387942;28;20184;-62
2023/08/06 13:44:59;;;;;;;3.07;2.87;;;15.60;99.90;;;;;;8391864;28;20227;-63
2023/08/06 13:49:00;;;;;;;2.60;2.40;;;15.50;99.90;;;;;;8382269;28;20215;-63
2023/08/06 13:53:02;;;;;;;4.10;2.70;;;15.60;99.90;;;;;;8372162;28;20181;-64
2023/08/06 13:57:03;;;;;;;2.67;2.47;;;15.50;99.90;;;;;;8386603;28;20639;-62
2023/08/06 14:01:04;;;;;;;2.73;2.50;;;15.60;99.90;;;;;;8391284;28;20192;-61
2023/08/06 14:05:06;;;;;;;3.73;2.80;;;15.60;99.90;;;;;;8384018;28;20181;-65
2023/08/06 14:09:07;;;;;;;3.83;2.40;;;15.50;99.90;;;;;;8390440;28;20249;-66
2023/08/06 14:13:09;;;;;;;2.70;2.50;;;15.50;99.90;;;;;;8392751;28;20195;-64
2023/08/06 14:17:10;;;;;;;2.93;2.70;;;15.50;99.90;;;;;;8384686;28;20212;-65
2023/08/06 14:21:11;;;;;;;2.60;2.40;;;15.50;99.90;;;;;;8395264;28;20193;-63
2023/08/06 14:25:14;;;;;;;2.87;2.67;;;15.50;99.90;;;;;;8394576;28;20187;-63
2023/08/06 14:29:15;;;;;;;3.20;2.57;;;15.50;99.90;;;;;;8391872;28;20277;-64
2023/08/06 14:33:16;;;;;;;2.63;2.43;;;15.60;99.90;;;;;;8392884;28;20185;-65
2023/08/06 14:37:17;;;;;;;2.67;2.20;;;15.60;99.90;;;;;;8389788;28;20261;-66
2023/08/06 14:41:18;;;;;;;2.60;2.40;;;15.70;99.90;;;;;;8392202;28;20283;-68
2023/08/06 14:45:18;;;;;;;3.00;2.30;;;15.70;99.90;;;;;;8384929;28;20211;-66
2023/08/06 14:49:19;;;;;;;2.30;2.10;;;15.60;99.90;;;;;;8387349;28;20246;-65
2023/08/06 14:53:20;;;;;;;3.33;2.27;;;15.60;99.90;;;;;;8389172;28;20187;-67
2023/08/06 14:57:27;;;;;;;2.83;2.53;;;15.60;99.90;;;;;;8396189;28;20264;-68
2023/08/06 15:01:31;;;;;;;2.40;2.20;;;15.50;99.90;;;;;;8388003;28;20725;-65
2023/08/06 15:05:32;;;;;;;2.17;1.97;;;15.50;99.90;;;;;;8387931;28;20192;-67
2023/08/06 15:09:32;;;;;;;2.27;2.03;;;15.70;99.90;;;;;;8389502;28;20275;-67
2023/08/06 15:13:33;;;;;;;2.40;2.10;;;15.60;99.90;;;;;;8386639;28;20287;-67
2023/08/06 15:17:34;;;;;;;2.67;2.47;;;15.60;99.90;;;;;;8390461;28;20240;-65
2023/08/06 15:21:35;;;;;;;5.37;2.40;;;15.60;99.90;;;;;;8395828;28;20188;-66
2023/08/06 15:25:36;;;;;;;2.73;2.17;;;15.50;99.90;;;;;;8393653;28;20184;-66
2023/08/06 15:29:38;;;;;;;4.10;1.93;;;15.60;99.90;;;;;;8399639;28;20238;-67
2023/08/06 15:33:39;;;;;;;2.17;1.97;;;15.60;99.90;;;;;;8407671;28;20181;-65
2023/08/06 15:37:41;;;;;;;2.13;1.93;;;15.50;99.90;;;;;;8391346;28;20213;-65
2023/08/06 15:41:42;;;;;;;2.20;1.97;;;15.40;99.90;;;;;;8388173;28;20256;-64
2023/08/06 15:45:43;;;;;;;2.63;2.10;;;15.20;99.90;;;;;;8386485;28;20196;-65
2023/08/06 15:49:45;;;;;;;2.27;2.07;;;15.20;99.90;;;;;;8388545;28;20193;-65
2023/08/06 15:53:46;;;;;;;2.40;2.20;;;15.10;99.90;;;;;;8387960;28;20185;-63
2023/08/06 15:57:49;;;;;;;3.10;2.90;;;15.20;99.90;;;;;;8388971;28;20209;-63
2023/08/06 16:01:50;;;;;;;3.20;2.73;;;15.20;99.90;;;;;;8388491;28;20186;-65
2023/08/06 16:05:50;;;;;;;4.53;3.00;;;15.10;99.90;;;;;;8387404;28;20563;-65
2023/08/06 16:09:53;;;;;;;2.90;2.70;;;15.10;99.90;;;;;;8387063;28;20211;-65
2023/08/06 16:13:54;;;;;;;3.10;2.80;;;15.10;99.90;;;;;;8395556;28;20479;-64
2023/08/06 16:17:56;;;;;;;3.40;3.00;;;15.10;99.90;;;;;;8386214;28;20259;-66
2023/08/06 16:21:57;;;;;;;2.83;2.60;;;15.20;99.90;;;;;;8385478;28;20195;-64
2023/08/06 16:25:58;;;;;;;3.17;2.87;;;15.20;99.90;;;;;;8384298;28;20267;-65
2023/08/06 16:29:59;;;;;;;5.07;2.80;;;15.10;99.90;;;;;;8386194;28;20206;-66
2023/08/06 16:34:00;;;;;;;2.30;2.10;;;15.10;99.90;;;;;;8380617;28;20184;-66
2023/08/06 16:38:01;;;;;;;2.47;2.27;;;15.00;99.90;;;;;;8391368;28;20215;-66
2023/08/06 16:42:02;;;;;;;2.67;2.27;;;15.00;99.90;;;;;;8393301;28;20181;-65
2023/08/06 16:46:03;;;;;;;2.60;2.27;;;15.00;99.90;;;;;;8390024;28;20476;-66
2023/08/06 16:50:06;;;;;;;2.50;1.90;;;15.00;99.90;;;;;;8408585;28;20188;-65
2023/08/06 16:54:06;;;;;;;3.80;2.30;;;14.90;99.90;;;;;;8392543;28;20189;-67
2023/08/06 16:58:07;;;;;;;4.30;2.23;;;14.90;99.90;;;;;;8393647;28;20218;-66
2023/08/06 17:02:08;;;;;;;2.40;2.20;;;14.80;99.90;;;;;;8392356;28;20181;-67
2023/08/06 17:06:14;;;;;;;4.17;2.77;;;14.80;99.90;;;;;;8389976;28;20231;-65
2023/08/06 17:10:19;;;;;;;2.47;2.27;;;14.70;99.90;;;;;;8393644;28;20311;-65
2023/08/06 17:14:20;;;;;;;2.60;2.40;;;14.70;99.90;;;;;;8394451;28;20192;-65
2023/08/06 17:18:21;;;;;;;3.00;2.23;;;14.60;99.90;;;;;;8396575;28;20208;-63
2023/08/06 17:22:22;;;;;;;2.67;2.30;;;14.60;99.90;;;;;;8397422;28;20223;-63
2023/08/06 17:26:23;;;;;;;4.07;2.60;;;14.50;99.90;;;;;;8398252;28;20193;-66
2023/08/06 17:30:23;;;;;;;2.70;2.50;;;14.50;99.90;;;;;;8393786;28;20315;-65
2023/08/06 17:34:24;;;;;;;2.87;2.57;;;14.50;99.90;;;;;;8388762;28;20189;-62
2023/08/06 17:38:25;;;;;;;4.53;3.00;;;14.40;99.90;;;;;;8388107;28;20299;-63
2023/08/06 17:42:26;;;;;;;4.00;3.37;;;14.40;99.90;;;;;;8390012;28;20191;-64
2023/08/06 17:46:27;;;;;;;4.27;3.70;;;14.40;99.90;;;;;;8394195;28;20226;-63
2023/08/06 17:50:28;;;;;;;4.20;3.90;;;14.40;99.90;;;;;;8399145;28;20254;-63
2023/08/06 17:54:29;;;;;;;4.10;3.80;;;14.40;99.90;;;;;;8388435;28;20650;-62
2023/08/06 17:58:29;;;;;;;4.40;4.00;;;14.40;99.90;;;;;;8393876;28;20212;-64
2023/08/06 18:02:30;;;;;;;4.47;4.07;;;14.50;99.90;;;;;;8391921;28;20433;-65
2023/08/06 18:06:31;;;;;;;4.30;4.00;;;14.40;99.90;;;;;;8385662;28;20297;-62
2023/08/06 18:10:32;;;;;;;7.80;4.17;;;14.40;99.90;;;;;;8384401;28;20229;-65
2023/08/06 18:14:32;;;;;;;5.13;4.30;;;14.40;99.90;;;;;;8390510;28;20193;-62
2023/08/06 18:18:33;;;;;;;5.53;4.50;;;14.50;99.90;;;;;;8395533;28;20219;-63
2023/08/06 18:22:35;;;;;;;6.07;4.60;;;14.50;99.90;;;;;;8394471;28;20189;-65
2023/08/06 18:26:36;;;;;;;5.27;4.67;;;14.50;99.90;;;;;;8395218;28;20292;-68
2023/08/06 18:30:37;;;;;;;6.47;5.77;;;14.40;99.90;;;;;;8382065;28;20185;-71
2023/08/06 18:34:38;;;;;;;7.17;5.50;;;14.40;99.90;;;;;;8383470;28;20238;-67
2023/08/06 18:38:39;;;;;;;6.27;5.67;;;14.40;99.90;;;;;;8393765;28;20641;-68
2023/08/06 18:42:40;;;;;;;6.03;5.47;;;14.30;99.90;;;;;;8403509;28;20242;-67
2023/08/06 18:46:41;;;;;;;6.57;5.87;;;14.30;99.90;;;;;;8384046;28;20201;-68
2023/08/06 18:50:46;;;;;;;5.60;5.13;;;14.30;99.90;;;;;;8389437;28;20194;-66
2023/08/06 18:54:47;;;;;;;7.23;6.20;;;14.30;99.90;;;;;;8388026;28;20188;-70
2023/08/06 18:58:48;;;;;;;7.57;5.67;;;14.30;99.90;;;;;;8391362;28;20204;-66
2023/08/06 19:02:49;;;;;;;7.03;6.37;;;14.30;99.90;;;;;;8392177;28;20259;-69
2023/08/06 19:06:49;;;;;;;9.27;7.23;;;14.30;99.90;;;;;;8392133;28;20192;-67
2023/08/06 19:10:50;;;;;;;7.73;7.03;;;14.30;99.90;;;;;;8395845;28;20208;-66
2023/08/06 19:14:51;;;;;;;6.93;6.33;;;14.40;99.90;;;;;;8389550;28;20185;-68
2023/08/06 19:18:52;;;;;;;7.03;6.33;;;14.40;99.90;;;;;;8393304;28;20303;-69
2023/08/06 19:22:53;;;;;;;7.50;6.80;;;14.40;99.90;;;;;;8396313;28;20191;-69
2023/08/06 19:26:54;;;;;;;7.57;6.87;;;14.40;99.90;;;;;;8399847;28;20292;-67
2023/08/06 19:30:56;;;;;;;7.60;6.90;;;14.40;99.90;;;;;;8397803;28;20277;-64
2023/08/06 19:34:57;;;;;;;7.37;6.67;;;14.40;99.90;;;;;;8396612;28;20181;-64
2023/08/06 19:38:58;;;;;;;6.73;6.13;;;14.40;99.90;;;;;;8393531;28;20209;-63
2023/08/06 19:42:59;;;;;;;7.73;6.13;;;14.40;99.90;;;;;;8393519;28;20207;-64
2023/08/06 19:46:59;;;;;;;7.97;6.60;;;14.30;99.90;;;;;;8391295;28;20289;-65
2023/08/06 19:51:05;;;;;;;6.03;5.53;;;14.40;99.90;;;;;;8397858;28;20189;-63
2023/08/06 19:55:07;;;;;;;6.87;5.73;;;14.30;99.90;;;;;;8399749;28;20186;-63
2023/08/06 19:59:09;;;;;;;7.23;6.40;;;14.30;99.90;;;;;;8396116;28;20304;-63
2023/08/06 20:03:10;;;;;;;6.70;6.10;;;14.30;99.90;;;;;;8392931;28;20181;-63
2023/08/06 20:07:11;;;;;;;9.33;6.23;;;14.20;99.90;;;;;;8387140;28;20303;-66
2023/08/06 20:11:13;;;;;;;8.00;6.13;;;14.20;99.90;;;;;;8396239;28;20216;-66
2023/08/06 20:15:15;;;;;;;7.03;6.43;;;14.20;99.90;;;;;;8387431;28;20188;-63
2023/08/06 20:19:15;;;;;;;8.77;6.37;;;14.10;99.90;;;;;;8401571;28;20211;-64
2023/08/06 20:23:16;;;;;;;7.23;6.57;;;14.10;99.90;;;;;;8396755;28;20188;-64
2023/08/06 20:27:17;;;;;;;8.50;6.33;;;14.10;99.90;;;;;;8393714;28;20596;-64
2023/08/06 20:31:18;;;;;;;7.67;6.83;;;14.00;99.90;;;;;;8391984;28;20188;-63
2023/08/06 20:35:19;;;;;;;7.87;6.80;;;14.00;99.90;;;;;;8398597;28;20593;-66
2023/08/06 20:39:20;;;;;;;7.03;6.23;;;14.00;99.90;;;;;;8396379;28;20265;-68
2023/08/06 20:43:20;;;;;;;7.83;6.17;;;14.00;99.90;;;;;;8390498;28;20227;-67
2023/08/06 20:47:21;;;;;;;8.33;7.20;;;14.00;99.90;;;;;;8394982;28;20189;-68
2023/08/06 20:51:22;;;;;;;8.60;6.87;;;14.00;99.90;;;;;;8397278;28;20234;-71
2023/08/06 20:55:27;;;;;;;9.13;6.57;;;13.90;99.90;;;;;;8398169;28;20226;-69
2023/08/06 20:59:28;;;;;;;7.57;6.87;;;13.90;99.90;;;;;;8394994;28;20238;-67